Time;durP1;ratioP1;P1;durP2;ratioP2;P2;SDS_P1;SDS_P2;PMS_P1;PMS_P2;Temp;Humidity;BMP_temperature;BMP_pressure;BME280_temperature;BME280_humidity;BME280_pressure;Samples;Min_cycle;Max_cycle;Signal;HPM_P1;HPM_P2
2022/08/01 00:01:53;;;;;;;1999.90;999.90;;;21.90;99.90;;;;;;5014125;28;20203;-67
2022/08/01 00:04:19;;;;;;;1999.90;999.90;;;22.00;99.90;;;;;;5014790;28;20283;-67
2022/08/01 00:06:45;;;;;;;1999.90;999.90;;;22.00;99.90;;;;;;5014174;28;20634;-67
2022/08/01 00:09:10;;;;;;;1999.90;999.90;;;21.90;99.90;;;;;;5014652;28;20173;-67
2022/08/01 00:11:36;;;;;;;1999.90;999.90;;;21.90;99.90;;;;;;5014640;28;20204;-67
2022/08/01 00:14:02;;;;;;;1999.90;999.90;;;21.90;99.90;;;;;;5014541;28;20169;-67
2022/08/01 00:16:27;;;;;;;1999.90;999.90;;;21.90;99.90;;;;;;5014125;28;20899;-67
2022/08/01 00:18:53;;;;;;;1999.90;999.90;;;21.80;99.90;;;;;;5014552;28;20166;-67
2022/08/01 00:21:19;;;;;;;1999.90;999.90;;;21.70;99.90;;;;;;5014360;28;20181;-67
2022/08/01 00:23:45;;;;;;;1999.90;999.90;;;21.50;99.90;;;;;;5014341;28;20468;-67
2022/08/01 00:26:12;;;;;;;1999.90;999.90;;;21.30;99.90;;;;;;5013861;28;20205;-67
2022/08/01 00:28:38;;;;;;;1999.90;999.90;;;21.20;99.90;;;;;;5014322;28;20197;-67
2022/08/01 00:31:03;;;;;;;1999.90;999.90;;;21.20;99.90;;;;;;5014247;28;20485;-67
2022/08/01 00:33:29;;;;;;;1999.90;999.90;;;21.10;99.90;;;;;;5014060;28;20170;-67
2022/08/01 00:35:55;;;;;;;1999.90;999.90;;;21.10;99.90;;;;;;5013967;28;20188;-67
2022/08/01 00:38:21;;;;;;;1999.90;999.90;;;21.10;99.90;;;;;;5013949;28;20178;-67
2022/08/01 00:40:47;;;;;;;1999.90;999.90;;;21.00;99.90;;;;;;5013989;28;20905;-67
2022/08/01 00:43:13;;;;;;;1999.90;999.90;;;21.00;99.90;;;;;;5014045;28;20174;-67
2022/08/01 00:45:38;;;;;;;1999.90;999.90;;;20.90;99.90;;;;;;5013735;28;20449;-67
2022/08/01 00:48:04;;;;;;;1999.90;999.90;;;20.90;99.90;;;;;;5013597;28;20413;-67
2022/08/01 00:50:30;;;;;;;1999.90;999.90;;;20.90;99.90;;;;;;5014054;28;20178;-67
2022/08/01 00:52:57;;;;;;;1999.90;999.90;;;20.80;99.90;;;;;;5013827;28;20248;-67
2022/08/01 00:55:22;;;;;;;1999.90;999.90;;;20.70;99.90;;;;;;5013810;28;20254;-67
2022/08/01 00:57:49;;;;;;;1999.90;999.90;;;20.80;99.90;;;;;;5013358;28;20829;-67
2022/08/01 01:00:15;;;;;;;1999.90;999.90;;;20.80;99.90;;;;;;5013728;28;20255;-67
2022/08/01 01:02:40;;;;;;;1999.90;999.90;;;20.90;99.90;;;;;;5013471;28;20479;-67
2022/08/01 01:05:06;;;;;;;1999.90;999.90;;;20.90;99.90;;;;;;5013730;28;20412;-67
2022/08/01 01:08:25;;;;;;;1999.90;999.90;;;20.90;99.90;;;;;;5012972;28;20207;-67
2022/08/01 01:11:05;;;;;;;1999.90;999.90;;;20.80;99.90;;;;;;5000512;28;20449;-67
2022/08/01 01:13:39;;;;;;;1999.90;999.90;;;20.80;99.90;;;;;;5012568;28;20412;-67
2022/08/01 01:16:15;;;;;;;1999.90;999.90;;;20.70;99.90;;;;;;5012989;28;20425;-66
2022/08/01 01:18:43;;;;;;;1999.90;999.90;;;20.80;99.90;;;;;;5013419;28;20430;-67
2022/08/01 01:21:18;;;;;;;1999.90;999.90;;;20.70;99.90;;;;;;5013494;28;20794;-68
2022/08/01 01:24:20;;;;;;;1999.90;999.90;;;20.80;99.90;;;;;;5013359;28;20409;-66
2022/08/01 01:27:08;;;;;;;1999.90;999.90;;;20.70;99.90;;;;;;5013043;28;20455;-66
2022/08/01 01:29:48;;;;;;;1999.90;999.90;;;20.70;99.90;;;;;;5013161;28;20375;-68
2022/08/01 01:32:16;;;;;;;1999.90;999.90;;;20.70;99.90;;;;;;5013236;28;20459;-67
2022/08/01 01:34:45;;;;;;;1999.90;999.90;;;20.70;99.90;;;;;;5013024;28;20433;-67
2022/08/01 01:37:17;;;;;;;1999.90;999.90;;;20.70;99.90;;;;;;5012697;28;20502;-67
2022/08/01 01:39:44;;;;;;;1999.90;999.90;;;20.70;99.90;;;;;;5013277;28;20409;-67
2022/08/01 01:42:10;;;;;;;1999.90;999.90;;;20.70;99.90;;;;;;5013016;28;20407;-67
2022/08/01 01:44:37;;;;;;;1999.90;999.90;;;20.70;99.90;;;;;;5013046;28;20412;-67
2022/08/01 01:47:04;;;;;;;1999.90;999.90;;;20.70;99.90;;;;;;5012375;28;20477;-68
2022/08/01 01:49:32;;;;;;;1999.90;999.90;;;20.70;99.90;;;;;;5012757;28;20398;-68
2022/08/01 01:52:00;;;;;;;1999.90;999.90;;;20.70;99.90;;;;;;5012753;28;20415;-68
2022/08/01 01:54:31;;;;;;;1999.90;999.90;;;20.70;99.90;;;;;;5012697;28;20831;-67
2022/08/01 01:56:59;;;;;;;1999.90;999.90;;;20.70;99.90;;;;;;5012259;28;20934;-67
2022/08/01 01:59:30;;;;;;;1999.90;999.90;;;20.70;99.90;;;;;;5012823;28;20405;-67
2022/08/01 02:01:59;;;;;;;1999.90;999.90;;;20.70;99.90;;;;;;5012630;28;20409;-67
2022/08/01 02:04:27;;;;;;;1999.90;999.90;;;20.80;99.90;;;;;;5012425;28;20932;-67
2022/08/01 02:06:55;;;;;;;1999.90;999.90;;;20.80;99.90;;;;;;5011930;28;20475;-67
2022/08/01 02:09:22;;;;;;;1999.90;999.90;;;20.90;99.90;;;;;;5012421;28;20399;-67
2022/08/01 02:11:49;;;;;;;1999.90;999.90;;;20.80;99.90;;;;;;5012433;28;20497;-67
2022/08/01 02:14:17;;;;;;;1999.90;999.90;;;20.80;99.90;;;;;;5012417;28;20406;-67
2022/08/01 02:16:47;;;;;;;1999.90;999.90;;;20.90;99.90;;;;;;5011986;28;20495;-67
2022/08/01 02:19:14;;;;;;;1999.90;999.90;;;20.80;99.90;;;;;;5012334;28;20409;-67
2022/08/01 02:21:58;;;;;;;1999.90;999.90;;;20.80;99.90;;;;;;5012214;28;20471;-67
2022/08/01 02:24:38;;;;;;;1999.90;999.90;;;20.80;99.90;;;;;;5012016;28;20410;-67
2022/08/01 02:27:14;;;;;;;1999.90;999.90;;;20.80;99.90;;;;;;5011897;28;20465;-68
2022/08/01 02:29:52;;;;;;;1999.90;999.90;;;20.70;99.90;;;;;;5012151;28;20418;-67
2022/08/01 02:32:25;;;;;;;1999.90;999.90;;;20.70;99.90;;;;;;5012240;28;20382;-67
2022/08/01 02:34:53;;;;;;;1999.90;999.90;;;20.70;99.90;;;;;;5012185;28;20472;-68
2022/08/01 02:37:19;;;;;;;1999.90;999.90;;;20.70;99.90;;;;;;5011808;28;20425;-68
2022/08/01 02:39:48;;;;;;;1999.90;999.90;;;20.60;99.90;;;;;;5012110;28;20550;-67
2022/08/01 02:42:15;;;;;;;1999.90;999.90;;;20.60;99.90;;;;;;5012151;28;20415;-68
2022/08/01 02:44:43;;;;;;;1999.90;999.90;;;20.60;99.90;;;;;;5012031;28;20415;-68
2022/08/01 02:47:10;;;;;;;1999.90;999.90;;;20.70;99.90;;;;;;5011652;28;20468;-68
2022/08/01 02:49:41;;;;;;;1999.90;999.90;;;20.70;99.90;;;;;;5012077;28;20555;-68
2022/08/01 02:52:09;;;;;;;1999.90;999.90;;;20.70;99.90;;;;;;5012162;28;20405;-68
2022/08/01 02:54:37;;;;;;;1999.90;999.90;;;20.70;99.90;;;;;;5012051;28;20445;-68
2022/08/01 02:57:05;;;;;;;1999.90;999.90;;;20.70;99.90;;;;;;5011588;28;20487;-68
2022/08/01 02:59:33;;;;;;;1999.90;999.90;;;20.70;99.90;;;;;;5011925;28;20415;-68
2022/08/01 03:02:01;;;;;;;1999.90;999.90;;;20.70;99.90;;;;;;5011977;28;20398;-68
2022/08/01 03:04:27;;;;;;;1999.90;999.90;;;20.70;99.90;;;;;;5011963;28;20409;-68
2022/08/01 03:06:58;;;;;;;1999.90;999.90;;;20.80;99.90;;;;;;5011387;28;20460;-67
2022/08/01 03:09:26;;;;;;;1999.90;999.90;;;20.90;99.90;;;;;;5012661;28;20411;-67
2022/08/01 03:11:55;;;;;;;1999.90;999.90;;;20.80;99.90;;;;;;5014159;28;20912;-67
2022/08/01 03:14:23;;;;;;;1999.90;999.90;;;20.80;99.90;;;;;;5012951;28;20407;-67
2022/08/01 03:16:49;;;;;;;1999.90;999.90;;;20.90;99.90;;;;;;5011404;28;20426;-67
2022/08/01 03:19:18;;;;;;;1999.90;999.90;;;20.90;99.90;;;;;;5012869;28;20416;-66
2022/08/01 03:21:44;;;;;;;1999.90;999.90;;;20.90;99.90;;;;;;5012835;28;20410;-67
2022/08/01 03:24:11;;;;;;;1999.90;999.90;;;20.90;99.90;;;;;;5011684;28;20409;-67
2022/08/01 03:26:38;;;;;;;1999.90;999.90;;;20.90;99.90;;;;;;5011294;28;20440;-67
2022/08/01 03:29:14;;;;;;;1999.90;999.90;;;20.90;99.90;;;;;;5012616;28;20498;-67
2022/08/01 03:31:43;;;;;;;1999.90;999.90;;;20.90;99.90;;;;;;5013246;28;20432;-67
2022/08/01 03:34:09;;;;;;;1999.90;999.90;;;20.90;99.90;;;;;;5013243;28;20410;-67
2022/08/01 03:36:41;;;;;;;1999.90;999.90;;;21.00;99.90;;;;;;5014560;28;20424;-67
2022/08/01 03:39:11;;;;;;;1999.90;999.90;;;21.00;99.90;;;;;;5016855;28;20470;-67
2022/08/01 03:41:40;;;;;;;1999.90;999.90;;;21.00;99.90;;;;;;5015999;28;20405;-67
2022/08/01 03:44:20;;;;;;;1999.90;999.90;;;21.00;99.90;;;;;;5015045;28;20484;-67
2022/08/01 03:46:49;;;;;;;1999.90;999.90;;;21.00;99.90;;;;;;5015500;28;20465;-66
2022/08/01 03:49:19;;;;;;;1999.90;999.90;;;21.00;99.90;;;;;;5017124;28;20429;-67
2022/08/01 03:51:49;;;;;;;1999.90;999.90;;;21.00;99.90;;;;;;5017425;28;20400;-66
2022/08/01 03:54:20;;;;;;;1999.90;999.90;;;21.00;99.90;;;;;;5017074;28;20768;-67
2022/08/01 03:56:47;;;;;;;1999.90;999.90;;;21.00;99.90;;;;;;5015839;28;20434;-67
2022/08/01 03:59:16;;;;;;;1999.90;999.90;;;21.00;99.90;;;;;;5016398;28;20385;-67
2022/08/01 04:01:42;;;;;;;1999.90;999.90;;;20.90;99.90;;;;;;5016889;28;20408;-66
2022/08/01 04:04:09;;;;;;;1999.90;999.90;;;20.80;99.90;;;;;;5016731;28;20445;-66
2022/08/01 04:06:38;;;;;;;1999.90;999.90;;;20.80;99.90;;;;;;5015922;28;20440;-67
2022/08/01 04:09:04;;;;;;;1999.90;999.90;;;20.90;99.90;;;;;;5016584;28;20410;-67
2022/08/01 04:11:29;;;;;;;1999.90;999.90;;;20.90;99.90;;;;;;5016278;28;20428;-67
2022/08/01 04:13:57;;;;;;;1999.90;999.90;;;20.90;99.90;;;;;;5016083;28;20190;-67
2022/08/01 04:16:22;;;;;;;1999.90;999.90;;;20.80;99.90;;;;;;5015711;28;20568;-67
2022/08/01 04:18:48;;;;;;;1999.90;999.90;;;20.80;99.90;;;;;;5014891;28;20408;-67
2022/08/01 04:21:17;;;;;;;1999.90;999.90;;;20.90;99.90;;;;;;5014362;28;20176;-67
2022/08/01 04:23:44;;;;;;;1999.90;999.90;;;20.80;99.90;;;;;;5014325;28;20404;-67
2022/08/01 04:26:12;;;;;;;1999.90;999.90;;;20.80;99.90;;;;;;5013722;28;20568;-67
2022/08/01 04:28:39;;;;;;;1999.90;999.90;;;20.70;99.90;;;;;;5014162;28;20400;-67
2022/08/01 04:31:09;;;;;;;1999.90;999.90;;;20.80;99.90;;;;;;5014146;28;20407;-67
2022/08/01 04:33:36;;;;;;;1999.90;999.90;;;20.80;99.90;;;;;;5014387;28;20388;-67
2022/08/01 04:36:05;;;;;;;1999.90;999.90;;;20.80;99.90;;;;;;5013845;28;20431;-67
2022/08/01 04:38:36;;;;;;;1999.90;999.90;;;20.80;99.90;;;;;;5014025;28;20409;-67
2022/08/01 04:41:03;;;;;;;1999.90;999.90;;;20.80;99.90;;;;;;5014096;28;20424;-67
2022/08/01 04:43:28;;;;;;;1999.90;999.90;;;20.70;99.90;;;;;;5013943;28;20385;-67
2022/08/01 04:45:55;;;;;;;1999.90;999.90;;;20.80;99.90;;;;;;5013544;28;20473;-67
2022/08/01 04:48:24;;;;;;;1999.90;999.90;;;20.70;99.90;;;;;;5013811;28;20252;-67
2022/08/01 04:50:50;;;;;;;1999.90;999.90;;;20.70;99.90;;;;;;5013852;28;20398;-67
2022/08/01 04:53:17;;;;;;;1999.90;999.90;;;20.70;99.90;;;;;;5013774;28;20418;-67
2022/08/01 04:55:45;;;;;;;1999.90;999.90;;;20.70;99.90;;;;;;5013692;28;20401;-67
2022/08/01 04:58:12;;;;;;;1999.90;999.90;;;20.60;99.90;;;;;;5013404;28;20433;-67
2022/08/01 05:00:37;;;;;;;1999.90;999.90;;;20.50;99.90;;;;;;5013680;28;20444;-66
2022/08/01 05:03:03;;;;;;;1999.90;999.90;;;20.50;99.90;;;;;;5013839;28;20927;-68
2022/08/01 05:05:30;;;;;;;1999.90;999.90;;;20.50;99.90;;;;;;5013520;28;20245;-67
2022/08/01 05:07:56;;;;;;;1999.90;999.90;;;20.50;99.90;;;;;;5052229;23;20251;-73
2022/08/01 05:10:21;;;;;;;1999.90;999.90;;;20.50;99.90;;;;;;5043810;28;20400;-73
2022/08/01 05:12:47;;;;;;;1999.90;999.90;;;20.60;99.90;;;;;;5044575;28;20172;-73
2022/08/01 05:15:12;;;;;;;1999.90;999.90;;;20.60;99.90;;;;;;5042998;28;20708;-73
2022/08/01 05:17:38;;;;;;;1999.90;999.90;;;20.60;99.90;;;;;;5043582;28;20216;-73
2022/08/01 05:20:06;;;;;;;1999.90;999.90;;;20.70;99.90;;;;;;5043200;28;20173;-73
2022/08/01 05:22:32;;;;;;;1999.90;999.90;;;20.60;99.90;;;;;;5042998;28;20646;-73
2022/08/01 05:24:59;;;;;;;1999.90;999.90;;;20.60;99.90;;;;;;5042435;28;20435;-73
2022/08/01 05:27:25;;;;;;;1999.90;999.90;;;20.60;99.90;;;;;;5042171;28;20218;-73
2022/08/01 05:29:51;;;;;;;1999.90;999.90;;;20.50;99.90;;;;;;5043463;28;20399;-73
2022/08/01 05:32:16;;;;;;;1999.90;999.90;;;20.50;99.90;;;;;;5043504;28;20614;-72
2022/08/01 05:34:42;;;;;;;1999.90;999.90;;;20.60;99.90;;;;;;5043680;28;20252;-73
2022/08/01 05:37:08;;;;;;;1999.90;999.90;;;20.60;99.90;;;;;;5044411;28;20195;-73
2022/08/01 05:39:34;;;;;;;1999.90;999.90;;;20.60;99.90;;;;;;5044032;28;20884;-73
2022/08/01 05:41:59;;;;;;;1999.90;999.90;;;20.60;99.90;;;;;;5040004;28;20214;-74
2022/08/01 05:44:25;;;;;;;1999.90;999.90;;;20.60;99.90;;;;;;5042475;28;20261;-73
2022/08/01 05:46:51;;;;;;;1999.90;999.90;;;20.60;99.90;;;;;;5042291;28;20762;-73
2022/08/01 05:49:16;;;;;;;1999.90;999.90;;;20.70;99.90;;;;;;5042886;28;20172;-73
2022/08/01 05:51:42;;;;;;;1999.90;999.90;;;20.60;99.90;;;;;;5042973;28;20206;-73
2022/08/01 05:54:08;;;;;;;1999.90;999.90;;;20.60;99.90;;;;;;5042678;28;20176;-73
2022/08/01 05:56:34;;;;;;;1999.90;999.90;;;20.70;99.90;;;;;;5041479;28;20232;-73
2022/08/01 05:58:59;;;;;;;1999.90;999.90;;;20.70;99.90;;;;;;5042488;28;20170;-73
2022/08/01 06:01:25;;;;;;;1999.90;999.90;;;20.90;99.90;;;;;;5043427;28;20237;-73
2022/08/01 06:03:53;;;;;;;1999.90;999.90;;;21.00;99.90;;;;;;5042568;28;20182;-74
2022/08/01 06:06:20;;;;;;;1999.90;999.90;;;21.00;99.90;;;;;;5041361;28;20229;-73
2022/08/01 06:08:45;;;;;;;1999.90;999.90;;;21.10;99.90;;;;;;5041434;28;20427;-73
2022/08/01 06:11:11;;;;;;;1999.90;999.90;;;21.10;99.90;;;;;;5040941;28;20491;-73
2022/08/01 06:13:36;;;;;;;1999.90;999.90;;;21.10;99.90;;;;;;5041771;28;20175;-73
2022/08/01 06:16:02;;;;;;;1999.90;999.90;;;21.10;99.90;;;;;;5040428;28;20642;-73
2022/08/01 06:18:28;;;;;;;1999.90;999.90;;;21.20;99.90;;;;;;5037866;28;20260;-73
2022/08/01 06:20:53;;;;;;;1999.90;999.90;;;21.20;99.90;;;;;;5041106;28;20210;-73
2022/08/01 06:23:21;;;;;;;1999.90;999.90;;;21.10;99.90;;;;;;5040437;28;20171;-74
2022/08/01 06:25:47;;;;;;;1999.90;999.90;;;21.00;99.90;;;;;;5041313;28;20196;-73
2022/08/01 06:28:12;;;;;;;1999.90;999.90;;;21.10;99.90;;;;;;5038067;28;20858;-73
2022/08/01 06:30:38;;;;;;;1999.90;999.90;;;21.20;99.90;;;;;;5038745;28;20400;-73
2022/08/01 06:33:04;;;;;;;1999.90;999.90;;;21.30;99.90;;;;;;5039090;28;20185;-74
2022/08/01 06:35:30;;;;;;;1999.90;999.90;;;21.30;99.90;;;;;;5038971;28;20167;-73
2022/08/01 06:37:59;;;;;;;1999.90;999.90;;;21.30;99.90;;;;;;5038509;28;20429;-74
2022/08/01 06:40:25;;;;;;;1999.90;999.90;;;21.50;99.90;;;;;;5039878;28;21102;-73
2022/08/01 06:42:51;;;;;;;1999.90;999.90;;;21.40;99.90;;;;;;5039642;28;20376;-73
2022/08/01 06:45:17;;;;;;;1999.90;999.90;;;21.40;99.90;;;;;;5039398;28;20174;-73
2022/08/01 06:47:44;;;;;;;1999.90;999.90;;;21.40;99.90;;;;;;5038173;28;20206;-73
2022/08/01 06:50:11;;;;;;;1999.90;999.90;;;21.30;99.90;;;;;;5038383;28;20463;-73
2022/08/01 06:52:37;;;;;;;1999.90;999.90;;;21.30;99.90;;;;;;5038149;28;20409;-73
2022/08/01 06:55:03;;;;;;;1999.90;999.90;;;21.30;99.90;;;;;;5039353;28;20416;-73
2022/08/01 06:57:29;;;;;;;1999.90;999.90;;;21.50;99.90;;;;;;5039966;28;20437;-73
2022/08/01 06:59:55;;;;;;;1999.90;999.90;;;21.50;99.90;;;;;;5040555;28;20413;-73
2022/08/01 07:02:22;;;;;;;1999.90;999.90;;;21.70;99.90;;;;;;5041384;28;20205;-73
2022/08/01 07:04:47;;;;;;;1999.90;999.90;;;21.50;99.90;;;;;;5039751;28;20504;-73
2022/08/01 07:07:13;;;;;;;1999.90;999.90;;;21.50;99.90;;;;;;5040935;28;20513;-73
2022/08/01 07:09:41;;;;;;;1999.90;999.90;;;21.50;99.90;;;;;;5040481;28;20616;-73
2022/08/01 07:12:07;;;;;;;1999.90;999.90;;;21.50;99.90;;;;;;5044850;28;20177;-73
2022/08/01 07:14:32;;;;;;;1999.90;999.90;;;21.50;99.90;;;;;;5044760;28;20487;-73
2022/08/01 07:16:58;;;;;;;1999.90;999.90;;;21.50;99.90;;;;;;5043854;28;20441;-72
2022/08/01 07:19:24;;;;;;;1999.90;999.90;;;21.60;99.90;;;;;;5043657;28;20202;-73
2022/08/01 07:21:49;;;;;;;1999.90;999.90;;;21.70;99.90;;;;;;5044751;28;20198;-73
2022/08/01 07:24:15;;;;;;;1999.90;999.90;;;21.90;99.90;;;;;;5043777;28;20586;-73
2022/08/01 07:26:50;;;;;;;1999.90;999.90;;;22.10;99.90;;;;;;5043583;28;20203;-73
2022/08/01 07:29:15;;;;;;;1999.90;999.90;;;22.10;99.90;;;;;;5043870;28;20239;-73
2022/08/01 07:31:41;;;;;;;1999.90;999.90;;;22.00;99.90;;;;;;5044943;28;20501;-73
2022/08/01 07:34:07;;;;;;;1999.90;999.90;;;22.00;99.90;;;;;;5048388;28;20640;-73
2022/08/01 07:36:33;;;;;;;1999.90;999.90;;;22.00;99.90;;;;;;5045996;28;20195;-73
2022/08/01 07:38:58;;;;;;;1999.90;999.90;;;22.20;99.90;;;;;;5044345;28;20412;-73
2022/08/01 07:41:24;;;;;;;1999.90;999.90;;;22.40;99.90;;;;;;5047115;28;20875;-73
2022/08/01 07:43:50;;;;;;;1999.90;999.90;;;22.40;99.90;;;;;;5047930;28;20220;-73
2022/08/01 07:46:16;;;;;;;1999.90;999.90;;;22.50;99.90;;;;;;5046288;28;20203;-73
2022/08/01 07:48:42;;;;;;;1999.90;999.90;;;22.50;99.90;;;;;;5047641;28;20403;-73
2022/08/01 07:51:10;;;;;;;1999.90;999.90;;;22.60;99.90;;;;;;5048214;28;20439;-73
2022/08/01 07:53:35;;;;;;;1999.90;999.90;;;22.60;99.90;;;;;;5046971;28;20774;-73
2022/08/01 07:56:02;;;;;;;1999.90;999.90;;;22.80;99.90;;;;;;5035395;28;20421;-71
2022/08/01 07:58:28;;;;;;;1999.90;999.90;;;22.90;99.90;;;;;;5034718;28;20418;-71
2022/08/01 08:00:53;;;;;;;1999.90;999.90;;;23.00;99.90;;;;;;5034852;28;20407;-71
2022/08/01 08:03:19;;;;;;;1999.90;999.90;;;23.10;99.90;;;;;;5034205;28;20172;-71
2022/08/01 08:05:44;;;;;;;1999.90;999.90;;;23.20;99.90;;;;;;5034411;28;20288;-71
2022/08/01 08:08:11;;;;;;;1999.90;999.90;;;23.40;99.90;;;;;;5034075;28;20582;-71
2022/08/01 08:10:37;;;;;;;1999.90;999.90;;;23.40;99.90;;;;;;5034362;28;20657;-71
2022/08/01 08:13:02;;;;;;;1999.90;999.90;;;23.40;99.90;;;;;;5035049;28;20505;-71
2022/08/01 08:15:28;;;;;;;1999.90;999.90;;;23.50;99.90;;;;;;5034549;28;20161;-70
2022/08/01 08:17:54;;;;;;;1999.90;999.90;;;23.70;99.90;;;;;;5031912;28;20189;-71
2022/08/01 08:20:24;;;;;;;1999.90;999.90;;;23.70;99.90;;;;;;5035866;28;20916;-70
2022/08/01 08:22:51;;;;;;;1999.90;999.90;;;23.70;99.90;;;;;;5036215;28;20156;-70
2022/08/01 08:25:16;;;;;;;1999.90;999.90;;;23.70;99.90;;;;;;5035453;28;20820;-71
2022/08/01 08:27:42;;;;;;;1999.90;999.90;;;23.70;99.90;;;;;;5037715;28;20460;-71
2022/08/01 08:30:08;;;;;;;1999.90;999.90;;;23.90;99.90;;;;;;5041295;28;20514;-71
2022/08/01 08:32:35;;;;;;;1999.90;999.90;;;24.00;99.90;;;;;;5034635;28;20173;-70
2022/08/01 08:35:01;;;;;;;1999.90;999.90;;;24.10;99.90;;;;;;5034298;28;20374;-70
2022/08/01 08:37:27;;;;;;;1999.90;999.90;;;24.10;99.90;;;;;;5033340;28;21034;-70
2022/08/01 08:39:52;;;;;;;1999.90;999.90;;;24.20;99.90;;;;;;5036824;28;20790;-69
2022/08/01 08:42:18;;;;;;;1999.90;999.90;;;24.30;99.90;;;;;;5042982;28;20301;-70
2022/08/01 08:44:44;;;;;;;1999.90;999.90;;;24.30;99.90;;;;;;5046430;28;20180;-70
2022/08/01 08:47:12;;;;;;;1999.90;999.90;;;24.30;99.90;;;;;;5043273;28;20462;-74
2022/08/01 08:49:39;;;;;;;1999.90;999.90;;;24.40;99.90;;;;;;5049696;28;20248;-73
2022/08/01 08:52:04;;;;;;;1999.90;999.90;;;24.30;99.90;;;;;;5047996;28;20397;-74
2022/08/01 08:54:32;;;;;;;1999.90;999.90;;;24.10;99.90;;;;;;5048945;28;20479;-73
2022/08/01 08:56:59;;;;;;;1999.90;999.90;;;24.00;99.90;;;;;;5049627;28;20185;-73
2022/08/01 08:59:25;;;;;;;1999.90;999.90;;;23.70;99.90;;;;;;5051581;28;20435;-73
2022/08/01 09:01:50;;;;;;;1999.90;999.90;;;23.70;99.90;;;;;;5039744;28;20955;-72
2022/08/01 09:04:16;;;;;;;1999.90;999.90;;;23.80;99.90;;;;;;5032849;28;20382;-72
2022/08/01 09:06:42;;;;;;;1999.90;999.90;;;24.10;99.90;;;;;;5032147;28;20211;-72
2022/08/01 09:09:09;;;;;;;1999.90;999.90;;;24.40;99.90;;;;;;5032389;28;20896;-72
2022/08/01 09:11:37;;;;;;;1999.90;999.90;;;24.70;99.90;;;;;;5032776;28;20184;-72
2022/08/01 09:14:04;;;;;;;1999.90;999.90;;;24.80;99.90;;;;;;5032299;28;20386;-72
2022/08/01 09:16:31;;;;;;;1999.90;999.90;;;24.80;99.90;;;;;;5031966;28;20416;-73
2022/08/01 09:19:14;;;;;;;1999.90;999.90;;;24.80;99.90;;;;;;5032312;28;20403;-72
2022/08/01 09:21:54;;;;;;;1999.90;999.90;;;24.50;99.90;;;;;;5032570;28;20468;-72
2022/08/01 09:24:20;;;;;;;1999.90;999.90;;;24.20;99.90;;;;;;5032124;28;20382;-73
2022/08/01 09:26:46;;;;;;;1999.90;999.90;;;24.10;99.90;;;;;;5032038;28;20853;-73
2022/08/01 09:29:23;;;;;;;1999.90;999.90;;;24.10;99.90;;;;;;5032557;28;20649;-73
2022/08/01 09:31:49;;;;;;;1999.90;999.90;;;24.10;99.90;;;;;;5032231;28;20410;-73
2022/08/01 09:34:16;;;;;;;1999.90;999.90;;;24.20;99.90;;;;;;5031018;28;20411;-73
2022/08/01 09:36:56;;;;;;;1999.90;999.90;;;24.50;99.90;;;;;;5032448;28;20486;-70
2022/08/01 09:39:36;;;;;;;1999.90;999.90;;;24.60;99.90;;;;;;5031568;28;20886;-72
2022/08/01 09:42:28;;;;;;;1999.90;999.90;;;24.50;99.90;;;;;;5032139;28;20464;-72
2022/08/01 09:44:53;;;;;;;1999.90;999.90;;;24.70;99.90;;;;;;5032102;28;20377;-70
2022/08/01 09:47:20;;;;;;;1999.90;999.90;;;24.80;99.90;;;;;;5031786;28;20816;-71
2022/08/01 09:49:56;;;;;;;1999.90;999.90;;;25.00;99.90;;;;;;5031570;28;20766;-71
2022/08/01 09:52:26;;;;;;;1999.90;999.90;;;24.70;99.90;;;;;;5032068;28;20486;-74
2022/08/01 09:54:58;;;;;;;1999.90;999.90;;;24.60;99.90;;;;;;5031014;28;20426;-74
2022/08/01 09:57:25;;;;;;;1999.90;999.90;;;24.70;99.90;;;;;;5031219;28;20433;-74
2022/08/01 09:59:52;;;;;;;1999.90;999.90;;;24.80;99.90;;;;;;5031826;28;20432;-74
2022/08/01 10:02:34;;;;;;;1999.90;999.90;;;24.70;99.90;;;;;;5030738;28;20426;-74
2022/08/01 10:05:02;;;;;;;1999.90;999.90;;;24.80;99.90;;;;;;5031769;28;20779;-74
2022/08/01 10:07:28;;;;;;;1999.90;999.90;;;24.90;99.90;;;;;;5085522;23;20602;-74
2022/08/01 10:09:53;;;;;;;1999.90;999.90;;;24.90;99.90;;;;;;5011354;28;20827;-74
2022/08/01 10:12:21;;;;;;;1999.90;999.90;;;24.80;99.90;;;;;;5011406;28;20187;-74
2022/08/01 10:14:49;;;;;;;1999.90;999.90;;;24.80;99.90;;;;;;5011431;28;20727;-74
2022/08/01 10:17:16;;;;;;;1999.90;999.90;;;24.90;99.90;;;;;;5022261;28;20406;-74
2022/08/01 10:19:43;;;;;;;1999.90;999.90;;;25.00;99.90;;;;;;5031539;28;20382;-74
2022/08/01 10:22:10;;;;;;;1999.90;999.90;;;25.10;99.90;;;;;;5031538;28;20407;-74
2022/08/01 10:24:40;;;;;;;1999.90;999.90;;;25.20;99.90;;;;;;5031132;28;20544;-74
2022/08/01 10:27:10;;;;;;;1999.90;999.90;;;25.20;99.90;;;;;;5031200;28;20451;-71
2022/08/01 10:29:39;;;;;;;1999.90;999.90;;;25.00;99.90;;;;;;5032195;28;20431;-71
2022/08/01 10:32:06;;;;;;;1999.90;999.90;;;24.80;99.90;;;;;;5034680;28;20457;-72
2022/08/01 10:34:33;;;;;;;1999.90;999.90;;;24.60;99.90;;;;;;5032832;28;20867;-71
2022/08/01 10:37:00;;;;;;;1999.90;999.90;;;24.70;99.90;;;;;;5033010;28;20505;-71
2022/08/01 10:39:28;;;;;;;1999.90;999.90;;;24.80;99.90;;;;;;5031831;28;20883;-71
2022/08/01 10:41:55;;;;;;;1999.90;999.90;;;25.20;99.90;;;;;;5032479;28;20919;-72
2022/08/01 10:44:23;;;;;;;1999.90;999.90;;;25.60;99.90;;;;;;5032987;28;20437;-71
2022/08/01 10:46:54;;;;;;;1999.90;999.90;;;25.90;99.90;;;;;;5035526;28;20994;-71
2022/08/01 10:49:22;;;;;;;1999.90;999.90;;;26.10;99.90;;;;;;5037181;28;20377;-71
2022/08/01 10:51:48;;;;;;;1999.90;999.90;;;26.00;99.90;;;;;;5036362;28;20853;-71
2022/08/01 10:54:14;;;;;;;1999.90;999.90;;;26.20;99.90;;;;;;5035720;28;20480;-71
2022/08/01 10:56:46;;;;;;;1999.90;999.90;;;26.10;99.90;;;;;;5035773;28;20206;-71
2022/08/01 10:59:21;;;;;;;1999.90;999.90;;;25.80;99.90;;;;;;5035935;28;20210;-71
2022/08/01 11:01:59;;;;;;;1999.90;999.90;;;25.60;99.90;;;;;;5036294;28;20393;-71
2022/08/01 11:05:04;;;;;;;1999.90;999.90;;;25.40;99.90;;;;;;5036283;28;20826;-71
2022/08/01 11:08:25;;;;;;;1999.90;999.90;;;25.50;99.90;;;;;;5035879;28;20470;-71
2022/08/01 11:11:03;;;;;;;1999.90;999.90;;;25.90;99.90;;;;;;5031428;28;20405;-71
2022/08/01 11:14:09;;;;;;;1999.90;999.90;;;26.00;99.90;;;;;;5035249;28;20381;-71
2022/08/01 11:16:36;;;;;;;1999.90;999.90;;;26.40;99.90;;;;;;4953739;28;20421;-71
2022/08/01 11:19:04;;;;;;;1999.90;999.90;;;26.60;99.90;;;;;;5022353;28;20398;-71
2022/08/01 11:22:03;;;;;;;1999.90;999.90;;;26.60;99.90;;;;;;5034905;28;20835;-71
2022/08/01 11:24:47;;;;;;;1999.90;999.90;;;26.80;99.90;;;;;;5035015;28;20443;-71
2022/08/01 11:27:21;;;;;;;1999.90;999.90;;;27.10;99.90;;;;;;5034441;28;20429;-71
2022/08/01 11:30:26;;;;;;;1999.90;999.90;;;27.40;99.90;;;;;;5034206;28;20377;-71
2022/08/01 11:32:57;;;;;;;1999.90;999.90;;;27.20;99.90;;;;;;5034473;28;20501;-71
2022/08/01 11:35:26;;;;;;;1999.90;999.90;;;26.90;99.90;;;;;;5034899;28;20378;-71
2022/08/01 11:37:55;;;;;;;1999.90;999.90;;;26.90;99.90;;;;;;5033906;28;20414;-71
2022/08/01 11:40:26;;;;;;;1999.90;999.90;;;27.30;99.90;;;;;;5035026;28;21072;-71
2022/08/01 11:43:13;;;;;;;1999.90;999.90;;;27.70;99.90;;;;;;5034783;28;20373;-71
2022/08/01 11:45:52;;;;;;;1999.90;999.90;;;27.60;99.90;;;;;;5034025;28;20378;-71
2022/08/01 11:48:20;;;;;;;1999.90;999.90;;;27.40;99.90;;;;;;5034161;28;20401;-71
2022/08/01 11:50:46;;;;;;;1999.90;999.90;;;27.50;99.90;;;;;;5034575;28;20385;-71
2022/08/01 11:53:14;;;;;;;1999.90;999.90;;;27.60;99.90;;;;;;5034049;28;20789;-71
2022/08/01 11:55:45;;;;;;;1999.90;999.90;;;27.80;99.90;;;;;;5033836;28;20414;-71
2022/08/01 11:58:11;;;;;;;1999.90;999.90;;;27.80;99.90;;;;;;5033959;28;20899;-71
2022/08/01 12:00:37;;;;;;;1999.90;999.90;;;27.80;99.90;;;;;;5033840;28;20502;-71
2022/08/01 12:03:06;;;;;;;1999.90;999.90;;;27.80;99.90;;;;;;5034276;28;20546;-71
2022/08/01 12:05:34;;;;;;;1999.90;999.90;;;28.20;99.90;;;;;;5034170;28;20389;-71
2022/08/01 12:08:01;;;;;;;1999.90;999.90;;;28.20;99.90;;;;;;5033300;28;20454;-71